Time;durP1;ratioP1;P1;durP2;ratioP2;P2;SDS_P1;SDS_P2;PMS_P1;PMS_P2;Temp;Humidity;BMP_temperature;BMP_pressure;BME280_temperature;BME280_humidity;BME280_pressure;Samples;Min_cycle;Max_cycle;Signal;HPM_P1;HPM_P2
2022/12/05 00:00:08;;;;;;;71.70;32.30;;;;;;;0.49;100.00;99561.35;4283395;82;21045;-87
2022/12/05 00:06:12;;;;;;;62.08;30.60;;;;;;;0.48;100.00;99552.49;4276617;82;20958;-88
2022/12/05 00:12:14;;;;;;;65.03;29.92;;;;;;;0.47;100.00;99551.45;4280716;82;20966;-88
2022/12/05 00:18:16;;;;;;;67.12;31.00;;;;;;;0.43;100.00;99530.22;4283793;82;20998;-87
2022/12/05 00:38:00;;;;;;;62.95;29.10;;;;;;;0.34;100.00;99520.69;4281984;82;21025;-87
2022/12/05 00:44:03;;;;;;;64.75;30.62;;;;;;;0.32;100.00;99522.05;4286597;82;21010;-87
2022/12/05 00:50:07;;;;;;;61.70;28.20;;;;;;;0.30;100.00;99510.23;4288444;82;21033;-87
2022/12/05 00:56:16;;;;;;;63.17;27.95;;;;;;;0.31;100.00;99505.66;4287341;82;20965;-87
2022/12/05 01:02:30;;;;;;;57.78;26.50;;;;;;;0.32;100.00;99498.63;4289318;82;21041;-87
2022/12/05 01:08:41;;;;;;;50.70;24.52;;;;;;;0.27;100.00;99496.59;4199394;84;21042;-87
2022/12/05 01:28:56;;;;;;;52.48;23.38;;;;;;;0.05;100.00;99456.81;4218205;83;22007;-87
2022/12/05 01:35:20;;;;;;;57.30;25.15;;;;;;;0.13;100.00;99487.11;4216513;83;21492;-86
2022/12/05 01:41:35;;;;;;;51.45;23.35;;;;;;;0.11;100.00;99488.50;4207200;83;20996;-87
2022/12/05 01:47:37;;;;;;;59.70;25.47;;;;;;;0.09;100.00;99487.99;4221159;83;22185;-87
2022/12/05 01:53:41;;;;;;;58.45;23.85;;;;;;;0.07;100.00;99492.32;4205886;83;21566;-87
2022/12/05 01:59:50;;;;;;;53.52;22.65;;;;;;;-0.01;100.00;99472.80;4211585;83;21043;-87
2022/12/05 02:06:01;;;;;;;56.83;23.60;;;;;;;0.03;100.00;99482.44;4216091;82;21445;-87
2022/12/05 02:12:04;;;;;;;57.45;24.43;;;;;;;0.02;100.00;99476.25;4213828;83;21527;-87
2022/12/05 02:18:26;;;;;;;58.78;25.27;;;;;;;0.04;100.00;99479.45;4211886;83;21055;-88
2022/12/05 02:24:55;;;;;;;56.25;24.55;;;;;;;0.02;100.00;99470.86;4213114;83;22037;-87
2022/12/05 02:31:13;;;;;;;57.23;22.25;;;;;;;0.02;100.00;99463.36;4210104;83;21003;-88
2022/12/05 02:37:37;;;;;;;51.63;23.90;;;;;;;0.01;100.00;99462.55;4209759;83;21072;-87
2022/12/05 02:44:07;;;;;;;61.13;24.90;;;;;;;0.01;100.00;99450.44;4182890;83;21054;-87
2022/12/05 02:50:13;;;;;;;63.25;25.70;;;;;;;0.04;100.00;99460.61;4109688;83;21437;-87
2022/12/05 02:56:19;;;;;;;58.95;27.07;;;;;;;0.09;100.00;99474.53;4210519;83;22016;-87
2022/12/05 03:02:35;;;;;;;62.35;26.75;;;;;;;0.06;100.00;99465.16;4210290;83;21034;-87
2022/12/05 03:08:50;;;;;;;57.70;24.80;;;;;;;0.04;100.00;99443.12;4209617;83;21082;-88
2022/12/05 03:15:06;;;;;;;56.60;24.40;;;;;;;-0.09;100.00;99434.45;4211994;83;21054;-87
2022/12/05 03:21:35;;;;;;;55.92;24.43;;;;;;;0.10;100.00;99459.42;4209330;83;21074;-86
2022/12/05 03:28:02;;;;;;;68.07;23.60;;;;;;;0.11;100.00;99451.59;4211594;83;21051;-87
2022/12/05 03:34:07;;;;;;;56.73;23.87;;;;;;;0.09;100.00;99455.69;4207835;83;21375;-87
2022/12/05 03:40:20;;;;;;;54.33;21.15;;;;;;;0.08;100.00;99458.14;4210829;83;21006;-88
2022/12/05 03:46:51;;;;;;;56.40;22.17;;;;;;;0.08;100.00;99487.18;4214566;83;21505;-88
2022/12/05 03:53:15;;;;;;;56.60;22.98;;;;;;;0.08;100.00;99470.25;4184086;83;20973;-87
2022/12/05 03:59:26;;;;;;;55.50;22.35;;;;;;;0.06;100.00;99494.77;4210773;83;21015;-87
2022/12/05 04:05:55;;;;;;;54.98;22.80;;;;;;;0.11;100.00;99489.84;4138876;84;21516;-87
2022/12/05 04:12:05;;;;;;;54.25;23.05;;;;;;;0.13;100.00;99486.30;4135279;84;21552;-88
2022/12/05 04:18:11;;;;;;;47.05;21.25;;;;;;;0.15;100.00;99494.88;4230713;81;43041;-86
2022/12/05 04:31:01;;;;;;;51.95;22.30;;;;;;;0.16;100.00;99489.20;4339628;81;20476;-87
2022/12/05 04:37:19;;;;;;;57.55;22.90;;;;;;;0.21;100.00;99492.35;4279847;82;21003;-87
2022/12/05 04:43:34;;;;;;;54.50;21.48;;;;;;;0.21;100.00;99477.55;4240880;82;21487;-88
2022/12/05 04:49:40;;;;;;;50.30;20.80;;;;;;;0.18;100.00;99473.56;4310987;81;21032;-88
2022/12/05 04:56:16;;;;;;;49.63;20.83;;;;;;;0.19;100.00;99463.60;4324756;80;20999;-87
2022/12/05 05:02:31;;;;;;;52.90;20.17;;;;;;;0.20;100.00;99461.15;4288999;81;20990;-87
2022/12/05 05:08:36;;;;;;;48.60;20.92;;;;;;;0.18;100.00;99447.98;4293844;81;21066;-87
2022/12/05 05:14:37;;;;;;;48.85;21.60;;;;;;;0.20;100.00;99433.69;4298323;81;21010;-87
2022/12/05 05:20:38;;;;;;;53.90;20.85;;;;;;;0.22;100.00;99437.43;4296128;81;21721;-87
2022/12/05 05:26:44;;;;;;;45.90;20.85;;;;;;;0.22;100.00;99435.52;4285155;81;21010;-87
2022/12/05 05:32:47;;;;;;;54.25;22.65;;;;;;;0.24;100.00;99437.37;4310179;81;20954;-87
2022/12/05 05:38:53;;;;;;;56.98;22.75;;;;;;;0.26;100.00;99436.53;4383561;79;21007;-87
2022/12/05 05:44:54;;;;;;;42.23;16.53;;;;;;;0.28;100.00;99433.01;4426838;79;21051;-87
2022/12/05 05:50:58;;;;;;;52.62;20.57;;;;;;;0.27;100.00;99442.16;4428494;79;21696;-87
2022/12/05 05:56:59;;;;;;;54.77;22.95;;;;;;;0.28;100.00;99449.70;4417848;79;20984;-87
2022/12/05 06:03:08;;;;;;;51.95;22.13;;;;;;;0.28;100.00;99430.31;4385643;79;21515;-86
2022/12/05 06:09:09;;;;;;;64.30;27.82;;;;;;;0.31;100.00;99445.06;4423119;79;21004;-87
2022/12/05 06:15:11;;;;;;;71.35;28.02;;;;;;;0.31;100.00;99436.45;4400182;79;21023;-87
2022/12/05 06:21:13;;;;;;;63.48;23.98;;;;;;;0.33;100.00;99445.58;4412928;79;21003;-87
2022/12/05 06:27:14;;;;;;;52.88;21.95;;;;;;;0.33;100.00;99436.93;4410167;79;21078;-86
2022/12/05 06:33:16;;;;;;;60.17;23.30;;;;;;;0.34;100.00;99443.13;4432501;79;20999;-87
2022/12/05 06:46:17;;;;;;;60.40;26.35;;;;;;;0.33;100.00;99449.62;4402863;79;21058;-87
2022/12/05 06:52:20;;;;;;;57.75;25.15;;;;;;;0.34;100.00;99447.16;4394330;79;21051;-87
2022/12/05 06:58:23;;;;;;;67.80;26.77;;;;;;;0.38;100.00;99450.84;4406105;79;21484;-87
2022/12/05 07:04:24;;;;;;;80.28;33.95;;;;;;;0.40;100.00;99448.66;4404041;79;20942;-87
2022/12/05 07:10:26;;;;;;;72.22;27.20;;;;;;;0.44;100.00;99451.03;4406503;79;20975;-88
2022/12/05 07:16:28;;;;;;;56.60;24.47;;;;;;;0.47;100.00;99451.21;4380924;79;20992;-87
2022/12/05 07:22:44;;;;;;;73.62;30.80;;;;;;;0.52;100.00;99452.47;4387299;79;21823;-87
2022/12/05 07:35:50;;;;;;;72.05;28.35;;;;;;;0.60;100.00;99442.35;4401311;79;20980;-86
2022/12/05 07:42:11;;;;;;;67.67;27.10;;;;;;;0.61;100.00;99444.51;4407123;79;20998;-86
2022/12/05 07:48:25;;;;;;;76.15;28.35;;;;;;;0.60;100.00;99443.70;4434664;79;20972;-87
2022/12/05 07:54:28;;;;;;;72.50;29.90;;;;;;;0.63;100.00;99446.33;4392056;79;21003;-88
2022/12/05 08:00:30;;;;;;;73.85;30.23;;;;;;;0.66;100.00;99445.77;4371863;79;20986;-88
2022/12/05 08:06:33;;;;;;;80.42;30.45;;;;;;;0.72;100.00;99432.44;4400970;79;20998;-88
2022/12/05 08:12:34;;;;;;;77.00;30.32;;;;;;;0.81;100.00;99448.15;4389562;79;21007;-89
2022/12/05 08:25:39;;;;;;;71.40;30.30;;;;;;;0.92;100.00;99440.11;4400879;79;20947;-88
2022/12/05 08:31:48;;;;;;;79.90;31.12;;;;;;;0.95;100.00;99443.00;4402626;79;21031;-87
2022/12/05 08:37:52;;;;;;;78.35;31.10;;;;;;;1.06;100.00;99446.28;4400074;79;21511;-87
2022/12/05 08:44:33;;;;;;;72.50;30.17;;;;;;;1.15;100.00;99457.41;4380271;79;21068;-88
2022/12/05 08:50:38;;;;;;;72.10;29.07;;;;;;;1.26;100.00;99462.83;4412259;79;21082;-88
2022/12/05 08:56:40;;;;;;;70.17;29.72;;;;;;;1.35;100.00;99467.75;4410913;79;21035;-89
2022/12/05 09:02:43;;;;;;;73.12;29.37;;;;;;;1.39;100.00;99459.28;4392201;79;21886;-88
2022/12/05 09:08:48;;;;;;;75.08;29.18;;;;;;;1.40;100.00;99456.05;4395783;79;20975;-89
2022/12/05 09:14:51;;;;;;;65.75;29.57;;;;;;;1.43;100.00;99445.45;4388334;79;21444;-89
2022/12/05 09:21:15;;;;;;;72.20;30.85;;;;;;;1.50;100.00;99455.26;4399604;79;21101;-88
2022/12/05 09:27:17;;;;;;;63.10;28.32;;;;;;;1.53;100.00;99443.86;4387893;79;21046;-87
2022/12/05 09:33:18;;;;;;;71.53;30.97;;;;;;;1.58;100.00;99432.17;4396773;79;21046;-88
2022/12/05 09:39:20;;;;;;;70.50;29.30;;;;;;;1.64;100.00;99430.95;4402764;79;22190;-89
2022/12/05 09:45:38;;;;;;;70.90;29.67;;;;;;;1.66;100.00;99431.42;4406153;79;21074;-89
2022/12/05 09:51:44;;;;;;;73.35;29.15;;;;;;;1.74;100.00;99421.81;4358161;79;21043;-88
2022/12/05 09:57:56;;;;;;;75.65;31.95;;;;;;;1.76;100.00;99412.84;4356953;80;21023;-88
2022/12/05 10:05:08;;;;;;;70.20;28.70;;;;;;;1.86;100.00;99405.86;4354555;80;20988;-89
2022/12/05 10:11:50;;;;;;;73.17;31.27;;;;;;;1.98;100.00;99393.93;4361449;80;21070;-89
2022/12/05 10:18:25;;;;;;;75.20;31.93;;;;;;;2.05;100.00;99391.03;4360826;80;20991;-88
2022/12/05 10:24:41;;;;;;;75.57;32.55;;;;;;;2.16;100.00;99397.77;4368975;80;20959;-89
2022/12/05 10:30:46;;;;;;;77.77;31.73;;;;;;;2.22;100.00;99376.29;4364311;80;20968;-88
2022/12/05 10:37:25;;;;;;;64.85;28.62;;;;;;;2.27;100.00;99380.19;4360959;80;21034;-88
2022/12/05 10:43:30;;;;;;;67.08;30.02;;;;;;;2.33;100.00;99374.10;4360857;80;21590;-85
2022/12/05 10:49:34;;;;;;;68.22;29.70;;;;;;;2.32;100.00;99361.14;4386900;79;21003;-86
2022/12/05 10:55:46;;;;;;;71.05;31.45;;;;;;;2.49;100.00;99361.77;4384717;79;20971;-88
2022/12/05 11:01:56;;;;;;;71.05;31.23;;;;;;;2.57;100.00;99352.33;4416073;79;21047;-88
2022/12/05 11:07:58;;;;;;;67.95;32.48;;;;;;;2.65;100.00;99343.45;4399099;79;21014;-86
2022/12/05 11:14:30;;;;;;;71.50;31.97;;;;;;;2.75;100.00;99355.88;4415056;79;21112;-85
2022/12/05 11:20:39;;;;;;;69.75;31.85;;;;;;;2.71;100.00;99342.19;4293427;82;20958;-85
2022/12/05 11:26:41;;;;;;;65.65;30.55;;;;;;;2.76;100.00;99342.05;4315798;81;20992;-86
2022/12/05 11:33:04;;;;;;;66.60;31.68;;;;;;;2.82;100.00;99327.80;4310694;81;21480;-85
2022/12/05 11:39:07;;;;;;;67.10;32.33;;;;;;;2.96;100.00;99321.73;4317171;81;21513;-88
2022/12/05 11:45:40;;;;;;;66.53;30.57;;;;;;;3.06;100.00;99325.45;4339557;80;21016;-87
2022/12/05 11:51:59;;;;;;;61.95;30.05;;;;;;;3.16;100.00;99319.17;4256787;82;20992;-87
2022/12/05 11:58:31;;;;;;;62.58;31.05;;;;;;;3.18;100.00;99316.14;4261620;82;21348;-86
2022/12/05 12:05:28;;;;;;;60.67;30.00;;;;;;;3.20;100.00;99292.28;4263866;82;21008;-88
2022/12/05 12:12:12;;;;;;;58.97;28.60;;;;;;;3.37;100.00;99298.25;4247166;82;21000;-87
2022/12/05 12:18:53;;;;;;;57.55;29.60;;;;;;;3.47;100.00;99285.72;4309859;81;21936;-86
2022/12/05 12:25:22;;;;;;;51.68;24.82;;;;;;;3.61;100.00;99287.14;4250018;82;21504;-87
2022/12/05 12:31:38;;;;;;;54.70;27.50;;;;;;;3.79;100.00;99281.91;4262347;82;21012;-87
2022/12/05 12:38:08;;;;;;;51.90;26.77;;;;;;;4.01;100.00;99279.54;4254562;82;20968;-87
2022/12/05 12:45:04;;;;;;;50.78;27.10;;;;;;;4.30;100.00;99264.65;4305668;81;21000;-87
2022/12/05 12:51:32;;;;;;;47.58;24.45;;;;;;;4.55;100.00;99273.20;4241974;81;21027;-88
2022/12/05 12:58:04;;;;;;;54.48;25.65;;;;;;;4.70;100.00;99265.27;4423421;79;20975;-87
2022/12/05 13:04:13;;;;;;;45.48;24.70;;;;;;;4.77;100.00;99275.05;4279848;80;20952;-86
2022/12/05 13:10:20;;;;;;;46.02;24.67;;;;;;;4.76;100.00;99269.37;4310335;81;20972;-87
2022/12/05 13:16:30;;;;;;;48.40;25.43;;;;;;;4.87;100.00;99254.84;4283946;81;21003;-86
2022/12/05 13:22:31;;;;;;;43.25;23.60;;;;;;;5.00;100.00;99261.13;4430143;79;20999;-87
2022/12/05 13:28:54;;;;;;;44.65;23.07;;;;;;;4.98;100.00;99268.83;4423664;79;21007;-87
2022/12/05 13:35:03;;;;;;;41.95;22.75;;;;;;;4.93;100.00;99266.31;4433669;79;21019;-87
2022/12/05 13:47:54;;;;;;;47.43;23.05;;;;;;;4.93;100.00;99254.91;4404662;79;21041;-87
2022/12/05 13:54:27;;;;;;;50.05;22.75;;;;;;;4.98;100.00;99266.89;4431164;79;21022;-87
2022/12/05 14:00:33;;;;;;;42.93;22.98;;;;;;;4.96;100.00;99256.95;4432366;79;21010;-86
2022/12/05 14:06:54;;;;;;;42.98;22.22;;;;;;;4.95;100.00;99263.48;4250503;82;20996;-87
2022/12/05 14:13:02;;;;;;;53.08;28.65;;;;;;;4.88;100.00;99277.35;4256213;82;21543;-86
2022/12/05 14:19:28;;;;;;;55.70;26.65;;;;;;;4.74;100.00;99285.76;4305574;81;22372;-87
2022/12/05 14:25:59;;;;;;;44.42;23.75;;;;;;;4.66;100.00;99279.27;4412245;79;21975;-87
2022/12/05 14:32:24;;;;;;;46.10;24.70;;;;;;;4.61;100.00;99280.81;4408312;79;21010;-87
2022/12/05 14:38:29;;;;;;;48.87;23.92;;;;;;;4.56;100.00;99284.27;4430994;79;21102;-87
2022/12/05 14:44:32;;;;;;;45.50;22.40;;;;;;;4.56;100.00;99289.13;4420382;79;20980;-87
2022/12/05 14:50:44;;;;;;;43.35;23.57;;;;;;;4.55;100.00;99300.30;4403960;79;20992;-86
2022/12/05 14:56:53;;;;;;;52.03;27.58;;;;;;;4.52;100.00;99300.96;4399142;79;20976;-87
2022/12/05 15:02:56;;;;;;;82.60;40.03;;;;;;;4.44;100.00;99309.38;4417839;79;20959;-86
2022/12/05 15:09:02;;;;;;;86.85;41.42;;;;;;;4.35;100.00;99294.28;4405840;79;21019;-87
2022/12/05 15:15:12;;;;;;;97.35;43.85;;;;;;;4.28;100.00;99305.63;4405221;79;21031;-87
2022/12/05 15:21:34;;;;;;;94.05;45.10;;;;;;;4.19;100.00;99289.17;4412347;79;21042;-87
2022/12/05 15:27:36;;;;;;;111.25;51.20;;;;;;;4.09;100.00;99293.03;4408322;79;20983;-86
2022/12/05 15:33:44;;;;;;;103.38;48.55;;;;;;;4.01;100.00;99281.67;4405607;79;21027;-87
2022/12/05 15:40:12;;;;;;;101.42;49.63;;;;;;;3.93;100.00;99286.55;4396739;79;21178;-87
2022/12/05 15:46:26;;;;;;;102.27;49.30;;;;;;;3.85;100.00;99283.89;4381096;79;21039;-86
2022/12/05 15:52:33;;;;;;;81.78;42.05;;;;;;;3.84;100.00;99292.56;4403230;79;21043;-86
2022/12/05 15:58:54;;;;;;;105.15;50.35;;;;;;;3.82;100.00;99289.95;4395585;79;21113;-87
2022/12/05 16:04:58;;;;;;;105.22;51.02;;;;;;;3.73;100.00;99293.25;4411484;79;21024;-86
2022/12/05 16:11:09;;;;;;;97.35;47.62;;;;;;;3.65;100.00;99296.19;4403961;79;20983;-86
2022/12/05 16:17:15;;;;;;;109.83;51.73;;;;;;;3.50;100.00;99285.88;4414167;79;21551;-86
2022/12/05 16:23:28;;;;;;;;;;;;;;;3.40;100.00;99267.27;4408968;79;21043;-87
2022/12/05 16:29:34;;;;;;;102.32;51.50;;;;;;;3.28;100.00;99276.60;4410968;79;20179;-86
2022/12/05 16:36:04;;;;;;;105.35;49.85;;;;;;;3.15;100.00;99277.56;4419935;79;21354;-87
2022/12/05 16:42:17;;;;;;;104.38;50.33;;;;;;;2.99;100.00;99271.06;4408695;79;21065;-87
2022/12/05 16:48:28;;;;;;;96.40;50.08;;;;;;;2.82;100.00;99277.79;4416333;79;21013;-86
2022/12/05 16:54:29;;;;;;;102.75;52.05;;;;;;;2.75;100.00;99266.12;4424011;79;21093;-86
2022/12/05 17:00:32;;;;;;;128.85;62.83;;;;;;;2.71;100.00;99263.80;4296702;79;10000214;-87
2022/12/05 17:06:33;;;;;;;92.22;50.30;;;;;;;2.65;100.00;99269.66;4406090;79;21041;-86
2022/12/05 17:12:34;;;;;;;140.03;69.70;;;;;;;2.50;100.00;99266.08;4415461;79;21988;-86
2022/12/05 17:18:39;;;;;;;137.97;69.42;;;;;;;2.41;100.00;99256.59;4395326;79;21590;-86
2022/12/05 17:24:42;;;;;;;143.05;69.90;;;;;;;2.41;100.00;99263.34;4403720;79;20996;-86
2022/12/05 17:30:44;;;;;;;133.90;67.12;;;;;;;2.40;100.00;99261.77;4414488;79;21051;-87
2022/12/05 17:36:45;;;;;;;119.02;60.95;;;;;;;2.38;100.00;99267.25;4410628;79;21941;-87
2022/12/05 17:42:47;;;;;;;133.55;65.05;;;;;;;2.38;100.00;99266.67;4418663;79;20999;-86
2022/12/05 17:48:50;;;;;;;127.20;61.95;;;;;;;2.38;100.00;99270.73;4412182;79;21019;-87
2022/12/05 17:54:51;;;;;;;124.72;62.00;;;;;;;2.37;100.00;99267.80;4387188;79;21002;-86
2022/12/05 18:00:53;;;;;;;121.67;60.95;;;;;;;2.38;100.00;99268.61;4400435;79;20972;-86
2022/12/05 18:06:55;;;;;;;152.72;75.42;;;;;;;2.45;100.00;99268.92;4412130;79;22000;-86
2022/12/05 18:12:56;;;;;;;161.00;77.82;;;;;;;2.50;100.00;99274.98;4419425;79;20940;-86
2022/12/05 18:18:58;;;;;;;175.00;85.55;;;;;;;2.55;100.00;99275.39;4416137;78;21890;-86
2022/12/05 18:25:02;;;;;;;158.97;75.45;;;;;;;2.57;100.00;99273.95;4411884;79;21022;-86
2022/12/05 18:31:15;;;;;;;149.12;73.90;;;;;;;2.62;100.00;99269.75;4275932;79;9999589;-86
2022/12/05 18:37:17;;;;;;;143.43;72.70;;;;;;;2.67;100.00;99266.91;4404286;79;21031;-86
2022/12/05 18:43:18;;;;;;;134.67;70.20;;;;;;;2.71;100.00;99266.50;4389354;79;20947;-86
2022/12/05 18:49:20;;;;;;;138.07;71.33;;;;;;;2.74;100.00;99266.44;4390391;79;21019;-86
2022/12/05 18:55:22;;;;;;;140.25;72.00;;;;;;;2.76;100.00;99268.25;4308599;79;21006;-86
2022/12/05 19:01:28;;;;;;;152.43;76.00;;;;;;;2.76;100.00;99270.95;4308637;80;20980;-86
2022/12/05 19:07:30;;;;;;;167.18;82.33;;;;;;;2.79;100.00;99274.38;4304134;80;21488;-86
2022/12/05 19:13:32;;;;;;;162.68;79.22;;;;;;;2.80;100.00;99270.00;4304071;80;21004;-86
2022/12/05 19:19:34;;;;;;;166.53;83.55;;;;;;;2.80;100.00;99278.69;4303777;80;20996;-86
2022/12/05 19:25:35;;;;;;;176.60;88.65;;;;;;;2.79;100.00;99281.94;4309121;80;20944;-87
2022/12/05 19:31:38;;;;;;;171.72;84.55;;;;;;;2.80;100.00;99275.98;4310777;80;20987;-86
2022/12/05 19:37:40;;;;;;;169.57;87.97;;;;;;;2.77;100.00;99273.91;4305101;80;20975;-86
2022/12/05 19:43:43;;;;;;;169.02;86.00;;;;;;;2.73;100.00;99272.94;4301243;80;20949;-86
2022/12/05 19:49:45;;;;;;;160.40;84.50;;;;;;;2.71;100.00;99269.78;4304994;80;20972;-87
2022/12/05 19:55:46;;;;;;;157.35;83.67;;;;;;;2.70;100.00;99267.63;4295118;82;21000;-86
2022/12/05 20:01:48;;;;;;;159.70;80.42;;;;;;;2.67;100.00;99275.56;4268924;82;21039;-87
2022/12/05 20:07:52;;;;;;;155.57;80.40;;;;;;;2.65;100.00;99268.31;4306698;81;21000;-87
2022/12/05 20:13:56;;;;;;;153.55;78.97;;;;;;;2.62;100.00;99267.05;4287276;81;21724;-87
2022/12/05 20:19:57;;;;;;;153.20;78.97;;;;;;;2.58;100.00;99263.40;4251702;82;21040;-86
2022/12/05 20:26:06;;;;;;;148.35;75.85;;;;;;;2.56;100.00;99259.41;4288863;81;20967;-87
2022/12/05 20:32:07;;;;;;;157.47;81.08;;;;;;;2.57;100.00;99261.02;4262665;81;21069;-86
2022/12/05 20:38:11;;;;;;;200.45;100.72;;;;;;;2.60;100.00;99265.21;4285353;81;21020;-86
2022/12/05 20:44:16;;;;;;;184.10;96.28;;;;;;;2.60;100.00;99261.16;4280997;81;21018;-86
2022/12/05 20:50:17;;;;;;;204.70;105.95;;;;;;;2.57;100.00;99261.02;4275826;81;21154;-86
2022/12/05 20:56:24;;;;;;;208.10;106.72;;;;;;;2.60;100.00;99259.03;4325480;80;21004;-87
2022/12/05 21:02:26;;;;;;;202.53;105.97;;;;;;;2.60;100.00;99246.29;4323533;80;20952;-87
2022/12/05 21:08:28;;;;;;;232.47;116.08;;;;;;;2.58;100.00;99269.35;4329906;80;21819;-88
2022/12/05 21:14:30;;;;;;;198.32;104.05;;;;;;;2.56;100.00;99252.65;4330469;80;21912;-88
2022/12/05 21:20:34;;;;;;;216.10;110.12;;;;;;;2.60;100.00;99244.16;4325713;80;20983;-87
2022/12/05 21:26:37;;;;;;;232.80;115.60;;;;;;;2.61;100.00;99247.09;4326147;80;21860;-87
2022/12/05 21:32:39;;;;;;;200.25;105.60;;;;;;;2.58;100.00;99243.13;4329220;80;20987;-87
2022/12/05 21:38:43;;;;;;;198.97;101.62;;;;;;;2.54;100.00;99238.10;4326635;80;20998;-86
2022/12/05 21:44:45;;;;;;;220.63;112.90;;;;;;;2.53;100.00;99250.58;4307544;80;20979;-86
2022/12/05 21:50:46;;;;;;;230.52;110.63;;;;;;;2.48;100.00;99243.42;4330349;80;20988;-85
2022/12/05 21:56:48;;;;;;;200.38;107.90;;;;;;;2.46;100.00;99227.30;4327667;80;21035;-87
2022/12/05 22:02:49;;;;;;;222.25;114.80;;;;;;;2.45;100.00;99231.90;4318174;80;21038;-87
2022/12/05 22:08:52;;;;;;;207.05;106.43;;;;;;;2.47;100.00;99228.33;4325874;80;21047;-87
2022/12/05 22:14:54;;;;;;;205.50;104.97;;;;;;;2.51;100.00;99223.06;4323922;80;21192;-87
2022/12/05 22:21:08;;;;;;;181.18;98.07;;;;;;;2.49;100.00;99206.40;4323088;80;21981;-86
2022/12/05 22:27:09;;;;;;;196.65;103.27;;;;;;;2.51;100.00;99208.20;4315062;80;21507;-87
2022/12/05 22:33:11;;;;;;;186.25;100.80;;;;;;;2.57;100.00;99206.97;4327285;80;21039;-87
2022/12/05 22:39:12;;;;;;;202.95;103.72;;;;;;;2.57;100.00;99207.73;4324041;80;21086;-87
2022/12/05 22:45:14;;;;;;;188.22;97.78;;;;;;;2.54;100.00;99208.37;4326707;80;21047;-88
2022/12/05 22:51:19;;;;;;;221.07;114.52;;;;;;;2.55;100.00;99202.42;4319434;80;21090;-87
2022/12/05 22:57:21;;;;;;;226.55;115.32;;;;;;;2.55;100.00;99195.09;4324359;80;21850;-88
2022/12/05 23:03:22;;;;;;;232.25;122.62;;;;;;;2.57;100.00;99180.71;4319643;80;21119;-88
2022/12/05 23:09:24;;;;;;;256.50;135.00;;;;;;;2.61;100.00;99176.83;4321679;80;21000;-88
2022/12/05 23:15:25;;;;;;;219.25;121.42;;;;;;;2.62;100.00;99164.34;4323021;80;21055;-89
2022/12/05 23:21:37;;;;;;;236.47;125.47;;;;;;;2.62;100.00;99179.20;4310876;80;21066;-88
2022/12/05 23:27:39;;;;;;;235.95;119.33;;;;;;;2.62;100.00;99179.20;4322486;80;22023;-87
2022/12/05 23:33:41;;;;;;;225.05;117.87;;;;;;;2.64;100.00;99175.64;4319332;80;21064;-88
2022/12/05 23:39:43;;;;;;;215.72;109.97;;;;;;;2.67;100.00;99164.19;4325131;80;21026;-88
2022/12/05 23:45:48;;;;;;;209.90;109.50;;;;;;;2.69;100.00;99164.64;4316063;80;21011;-88
2022/12/05 23:51:50;;;;;;;216.53;116.05;;;;;;;2.70;100.00;99171.66;4319607;80;22298;-88
2022/12/05 23:57:51;;;;;;;236.25;123.58;;;;;;;2.72;100.00;99162.69;4319267;80;21579;-87
